sensor_id;sensor_type;location;lat;lon;timestamp;P1;durP1;ratioP1;P2;durP2;ratioP2
12906;SDS011;6521;50.498;8.474;2022-12-07T00:02:17;53.83;;;28.13;;
12906;SDS011;6521;50.498;8.474;2022-12-07T00:04:48;53.03;;;27.67;;
12906;SDS011;6521;50.498;8.474;2022-12-07T00:07:19;54.63;;;29.87;;
12906;SDS011;6521;50.498;8.474;2022-12-07T00:09:50;57.80;;;28.83;;
12906;SDS011;6521;50.498;8.474;2022-12-07T00:12:21;51.03;;;26.47;;
12906;SDS011;6521;50.498;8.474;2022-12-07T00:14:52;56.73;;;27.33;;
12906;SDS011;6521;50.498;8.474;2022-12-07T00:17:23;47.97;;;27.10;;
12906;SDS011;6521;50.498;8.474;2022-12-07T00:19:53;51.10;;;26.03;;
12906;SDS011;6521;50.498;8.474;2022-12-07T00:22:24;56.97;;;27.30;;
12906;SDS011;6521;50.498;8.474;2022-12-07T00:24:55;49.37;;;25.90;;
12906;SDS011;6521;50.498;8.474;2022-12-07T00:27:26;48.67;;;25.80;;
12906;SDS011;6521;50.498;8.474;2022-12-07T00:29:57;50.73;;;25.57;;
12906;SDS011;6521;50.498;8.474;2022-12-07T00:32:28;47.27;;;24.87;;
12906;SDS011;6521;50.498;8.474;2022-12-07T00:34:59;49.10;;;25.13;;
12906;SDS011;6521;50.498;8.474;2022-12-07T00:37:30;44.77;;;25.83;;
12906;SDS011;6521;50.498;8.474;2022-12-07T00:40:01;49.13;;;25.30;;
12906;SDS011;6521;50.498;8.474;2022-12-07T00:42:31;48.23;;;26.27;;
12906;SDS011;6521;50.498;8.474;2022-12-07T00:45:02;45.47;;;25.30;;
12906;SDS011;6521;50.498;8.474;2022-12-07T00:47:34;54.37;;;25.80;;
12906;SDS011;6521;50.498;8.474;2022-12-07T00:50:04;45.40;;;25.30;;
12906;SDS011;6521;50.498;8.474;2022-12-07T00:52:36;43.87;;;23.50;;
12906;SDS011;6521;50.498;8.474;2022-12-07T00:55:06;43.13;;;24.07;;
12906;SDS011;6521;50.498;8.474;2022-12-07T00:57:37;42.10;;;22.73;;
12906;SDS011;6521;50.498;8.474;2022-12-07T01:00:08;42.03;;;23.27;;
12906;SDS011;6521;50.498;8.474;2022-12-07T01:02:39;45.13;;;23.23;;
12906;SDS011;6521;50.498;8.474;2022-12-07T01:05:10;44.00;;;23.80;;
12906;SDS011;6521;50.498;8.474;2022-12-07T01:07:40;39.83;;;21.53;;
12906;SDS011;6521;50.498;8.474;2022-12-07T01:10:11;41.80;;;23.43;;
12906;SDS011;6521;50.498;8.474;2022-12-07T01:12:43;39.33;;;21.03;;
12906;SDS011;6521;50.498;8.474;2022-12-07T01:15:14;43.63;;;22.47;;
12906;SDS011;6521;50.498;8.474;2022-12-07T01:17:45;39.23;;;22.67;;
12906;SDS011;6521;50.498;8.474;2022-12-07T01:20:16;35.63;;;19.93;;
12906;SDS011;6521;50.498;8.474;2022-12-07T01:22:47;31.53;;;18.67;;
12906;SDS011;6521;50.498;8.474;2022-12-07T01:25:18;38.20;;;19.87;;
12906;SDS011;6521;50.498;8.474;2022-12-07T01:27:48;35.17;;;19.13;;
12906;SDS011;6521;50.498;8.474;2022-12-07T01:30:19;33.63;;;18.37;;
12906;SDS011;6521;50.498;8.474;2022-12-07T01:32:50;28.50;;;17.43;;
12906;SDS011;6521;50.498;8.474;2022-12-07T01:35:21;35.10;;;18.67;;
12906;SDS011;6521;50.498;8.474;2022-12-07T01:37:51;32.00;;;17.87;;
12906;SDS011;6521;50.498;8.474;2022-12-07T01:40:22;33.83;;;19.33;;
12906;SDS011;6521;50.498;8.474;2022-12-07T01:42:53;31.90;;;17.13;;
12906;SDS011;6521;50.498;8.474;2022-12-07T01:45:39;28.07;;;17.17;;
12906;SDS011;6521;50.498;8.474;2022-12-07T01:48:11;30.37;;;17.63;;
12906;SDS011;6521;50.498;8.474;2022-12-07T01:50:46;31.73;;;17.77;;
12906;SDS011;6521;50.498;8.474;2022-12-07T01:53:21;31.17;;;17.43;;
12906;SDS011;6521;50.498;8.474;2022-12-07T01:55:55;29.73;;;16.40;;
12906;SDS011;6521;50.498;8.474;2022-12-07T01:58:27;31.57;;;17.03;;
12906;SDS011;6521;50.498;8.474;2022-12-07T02:00:59;32.10;;;17.83;;
12906;SDS011;6521;50.498;8.474;2022-12-07T02:03:37;29.60;;;16.47;;
12906;SDS011;6521;50.498;8.474;2022-12-07T02:06:12;29.03;;;16.83;;
12906;SDS011;6521;50.498;8.474;2022-12-07T02:08:51;28.23;;;16.27;;
12906;SDS011;6521;50.498;8.474;2022-12-07T02:11:22;26.40;;;16.00;;
12906;SDS011;6521;50.498;8.474;2022-12-07T02:13:53;26.77;;;15.90;;
12906;SDS011;6521;50.498;8.474;2022-12-07T02:25:23;27.50;;;16.53;;
12906;SDS011;6521;50.498;8.474;2022-12-07T02:28:11;27.07;;;15.90;;
12906;SDS011;6521;50.498;8.474;2022-12-07T02:30:52;26.80;;;16.73;;
12906;SDS011;6521;50.498;8.474;2022-12-07T02:33:28;25.87;;;15.93;;
12906;SDS011;6521;50.498;8.474;2022-12-07T02:36:11;29.20;;;17.13;;
12906;SDS011;6521;50.498;8.474;2022-12-07T02:38:55;28.93;;;17.73;;
12906;SDS011;6521;50.498;8.474;2022-12-07T02:41:33;24.37;;;16.00;;
12906;SDS011;6521;50.498;8.474;2022-12-07T02:44:14;27.47;;;17.13;;
12906;SDS011;6521;50.498;8.474;2022-12-07T02:47:03;26.90;;;14.87;;
12906;SDS011;6521;50.498;8.474;2022-12-07T02:49:38;29.30;;;17.13;;
12906;SDS011;6521;50.498;8.474;2022-12-07T02:52:10;27.57;;;16.17;;
12906;SDS011;6521;50.498;8.474;2022-12-07T02:54:41;30.57;;;17.50;;
12906;SDS011;6521;50.498;8.474;2022-12-07T03:00:11;34.43;;;16.77;;
12906;SDS011;6521;50.498;8.474;2022-12-07T03:08:33;27.30;;;15.60;;
12906;SDS011;6521;50.498;8.474;2022-12-07T03:14:10;29.67;;;17.40;;
12906;SDS011;6521;50.498;8.474;2022-12-07T03:16:53;29.30;;;16.57;;
12906;SDS011;6521;50.498;8.474;2022-12-07T03:19:29;28.10;;;16.13;;
12906;SDS011;6521;50.498;8.474;2022-12-07T03:22:04;27.50;;;16.10;;
12906;SDS011;6521;50.498;8.474;2022-12-07T03:24:57;29.13;;;16.80;;
12906;SDS011;6521;50.498;8.474;2022-12-07T03:27:35;28.37;;;17.17;;
12906;SDS011;6521;50.498;8.474;2022-12-07T03:30:10;29.00;;;16.80;;
12906;SDS011;6521;50.498;8.474;2022-12-07T03:32:47;25.83;;;16.17;;
12906;SDS011;6521;50.498;8.474;2022-12-07T03:35:26;31.53;;;16.50;;
12906;SDS011;6521;50.498;8.474;2022-12-07T03:38:08;22.83;;;14.90;;
12906;SDS011;6521;50.498;8.474;2022-12-07T03:40:50;28.67;;;16.30;;
12906;SDS011;6521;50.498;8.474;2022-12-07T03:43:25;25.27;;;15.43;;
12906;SDS011;6521;50.498;8.474;2022-12-07T03:46:09;25.60;;;16.20;;
12906;SDS011;6521;50.498;8.474;2022-12-07T03:48:54;29.17;;;16.50;;
12906;SDS011;6521;50.498;8.474;2022-12-07T03:51:34;30.77;;;15.93;;
12906;SDS011;6521;50.498;8.474;2022-12-07T03:54:29;29.00;;;16.93;;
12906;SDS011;6521;50.498;8.474;2022-12-07T03:57:04;32.83;;;17.93;;
12906;SDS011;6521;50.498;8.474;2022-12-07T03:59:37;30.93;;;17.43;;
12906;SDS011;6521;50.498;8.474;2022-12-07T04:02:10;28.60;;;17.27;;
12906;SDS011;6521;50.498;8.474;2022-12-07T04:04:43;28.13;;;16.17;;
12906;SDS011;6521;50.498;8.474;2022-12-07T04:07:14;29.63;;;16.70;;
12906;SDS011;6521;50.498;8.474;2022-12-07T04:09:44;31.70;;;18.67;;
12906;SDS011;6521;50.498;8.474;2022-12-07T04:12:15;32.77;;;18.30;;
12906;SDS011;6521;50.498;8.474;2022-12-07T04:14:46;32.20;;;16.97;;
12906;SDS011;6521;50.498;8.474;2022-12-07T04:17:16;29.47;;;17.97;;
12906;SDS011;6521;50.498;8.474;2022-12-07T04:19:47;35.27;;;19.60;;
12906;SDS011;6521;50.498;8.474;2022-12-07T04:22:18;36.43;;;19.37;;
12906;SDS011;6521;50.498;8.474;2022-12-07T04:24:49;32.00;;;18.67;;
12906;SDS011;6521;50.498;8.474;2022-12-07T04:27:20;31.77;;;19.17;;
12906;SDS011;6521;50.498;8.474;2022-12-07T04:29:50;31.37;;;18.17;;
12906;SDS011;6521;50.498;8.474;2022-12-07T04:32:22;28.87;;;16.60;;
12906;SDS011;6521;50.498;8.474;2022-12-07T04:34:53;34.87;;;19.23;;
12906;SDS011;6521;50.498;8.474;2022-12-07T04:37:24;35.67;;;20.57;;
12906;SDS011;6521;50.498;8.474;2022-12-07T04:39:55;42.70;;;22.07;;
12906;SDS011;6521;50.498;8.474;2022-12-07T04:42:25;41.50;;;21.27;;
12906;SDS011;6521;50.498;8.474;2022-12-07T04:44:56;37.47;;;19.13;;
12906;SDS011;6521;50.498;8.474;2022-12-07T04:47:27;34.17;;;19.30;;
12906;SDS011;6521;50.498;8.474;2022-12-07T04:49:58;35.00;;;18.70;;
12906;SDS011;6521;50.498;8.474;2022-12-07T04:52:29;35.57;;;19.60;;
12906;SDS011;6521;50.498;8.474;2022-12-07T04:54:59;33.93;;;19.47;;
12906;SDS011;6521;50.498;8.474;2022-12-07T04:57:30;31.23;;;18.30;;
12906;SDS011;6521;50.498;8.474;2022-12-07T05:00:01;31.00;;;18.10;;
12906;SDS011;6521;50.498;8.474;2022-12-07T05:02:33;30.67;;;17.47;;
12906;SDS011;6521;50.498;8.474;2022-12-07T05:05:03;32.53;;;17.50;;
12906;SDS011;6521;50.498;8.474;2022-12-07T05:07:35;36.37;;;19.33;;
12906;SDS011;6521;50.498;8.474;2022-12-07T05:10:06;31.00;;;17.30;;
12906;SDS011;6521;50.498;8.474;2022-12-07T05:12:37;29.13;;;16.87;;
12906;SDS011;6521;50.498;8.474;2022-12-07T05:15:08;31.07;;;19.33;;
12906;SDS011;6521;50.498;8.474;2022-12-07T05:17:39;32.97;;;18.20;;
12906;SDS011;6521;50.498;8.474;2022-12-07T05:20:10;27.67;;;18.03;;
12906;SDS011;6521;50.498;8.474;2022-12-07T05:22:41;30.70;;;17.90;;
12906;SDS011;6521;50.498;8.474;2022-12-07T05:25:12;29.33;;;18.67;;
12906;SDS011;6521;50.498;8.474;2022-12-07T05:27:43;35.00;;;19.50;;
12906;SDS011;6521;50.498;8.474;2022-12-07T05:30:13;33.80;;;19.60;;
12906;SDS011;6521;50.498;8.474;2022-12-07T05:32:44;33.63;;;19.33;;
12906;SDS011;6521;50.498;8.474;2022-12-07T05:35:15;34.93;;;19.70;;
12906;SDS011;6521;50.498;8.474;2022-12-07T05:37:47;35.53;;;20.57;;
12906;SDS011;6521;50.498;8.474;2022-12-07T05:40:17;36.33;;;19.93;;
12906;SDS011;6521;50.498;8.474;2022-12-07T05:42:49;38.10;;;20.23;;
12906;SDS011;6521;50.498;8.474;2022-12-07T05:45:20;35.03;;;19.63;;
12906;SDS011;6521;50.498;8.474;2022-12-07T05:47:50;37.07;;;20.40;;
12906;SDS011;6521;50.498;8.474;2022-12-07T05:50:21;31.97;;;19.37;;
12906;SDS011;6521;50.498;8.474;2022-12-07T05:53:04;41.10;;;21.20;;
12906;SDS011;6521;50.498;8.474;2022-12-07T05:55:35;36.27;;;20.33;;
12906;SDS011;6521;50.498;8.474;2022-12-07T05:58:06;39.53;;;20.30;;
12906;SDS011;6521;50.498;8.474;2022-12-07T06:00:55;34.50;;;20.07;;
12906;SDS011;6521;50.498;8.474;2022-12-07T06:03:26;39.70;;;21.23;;
12906;SDS011;6521;50.498;8.474;2022-12-07T06:05:57;37.37;;;19.17;;
12906;SDS011;6521;50.498;8.474;2022-12-07T06:08:27;34.20;;;18.90;;
12906;SDS011;6521;50.498;8.474;2022-12-07T06:10:58;33.90;;;19.10;;
12906;SDS011;6521;50.498;8.474;2022-12-07T06:13:48;35.60;;;19.43;;
12906;SDS011;6521;50.498;8.474;2022-12-07T06:16:18;36.10;;;19.90;;
12906;SDS011;6521;50.498;8.474;2022-12-07T06:18:49;36.23;;;21.07;;
12906;SDS011;6521;50.498;8.474;2022-12-07T06:21:20;36.47;;;20.87;;
12906;SDS011;6521;50.498;8.474;2022-12-07T06:23:52;40.50;;;20.87;;
12906;SDS011;6521;50.498;8.474;2022-12-07T06:26:23;36.30;;;20.53;;
12906;SDS011;6521;50.498;8.474;2022-12-07T06:28:54;34.87;;;20.50;;
12906;SDS011;6521;50.498;8.474;2022-12-07T06:31:25;43.70;;;21.07;;
12906;SDS011;6521;50.498;8.474;2022-12-07T06:34:02;37.47;;;20.80;;
12906;SDS011;6521;50.498;8.474;2022-12-07T06:36:34;35.43;;;19.03;;
12906;SDS011;6521;50.498;8.474;2022-12-07T06:39:05;35.03;;;19.13;;
12906;SDS011;6521;50.498;8.474;2022-12-07T06:41:37;36.73;;;19.43;;
12906;SDS011;6521;50.498;8.474;2022-12-07T06:44:08;37.37;;;19.57;;
12906;SDS011;6521;50.498;8.474;2022-12-07T06:46:39;30.97;;;18.40;;
12906;SDS011;6521;50.498;8.474;2022-12-07T06:49:10;31.30;;;18.87;;
12906;SDS011;6521;50.498;8.474;2022-12-07T06:51:41;31.93;;;18.60;;
12906;SDS011;6521;50.498;8.474;2022-12-07T06:54:13;30.13;;;18.30;;
12906;SDS011;6521;50.498;8.474;2022-12-07T06:56:45;35.60;;;18.20;;
12906;SDS011;6521;50.498;8.474;2022-12-07T06:59:16;31.60;;;18.10;;
12906;SDS011;6521;50.498;8.474;2022-12-07T07:01:46;35.53;;;18.53;;
12906;SDS011;6521;50.498;8.474;2022-12-07T07:04:17;32.23;;;18.00;;
12906;SDS011;6521;50.498;8.474;2022-12-07T07:06:48;33.43;;;18.33;;
12906;SDS011;6521;50.498;8.474;2022-12-07T07:09:19;34.80;;;18.37;;
12906;SDS011;6521;50.498;8.474;2022-12-07T07:11:49;33.07;;;18.47;;
12906;SDS011;6521;50.498;8.474;2022-12-07T07:14:20;39.03;;;18.47;;
12906;SDS011;6521;50.498;8.474;2022-12-07T07:16:52;31.87;;;18.03;;
12906;SDS011;6521;50.498;8.474;2022-12-07T07:19:23;32.53;;;18.70;;
12906;SDS011;6521;50.498;8.474;2022-12-07T07:21:54;34.57;;;19.07;;
12906;SDS011;6521;50.498;8.474;2022-12-07T07:24:25;41.83;;;19.37;;
12906;SDS011;6521;50.498;8.474;2022-12-07T07:26:55;34.80;;;19.77;;
12906;SDS011;6521;50.498;8.474;2022-12-07T07:29:26;33.93;;;19.83;;
12906;SDS011;6521;50.498;8.474;2022-12-07T07:31:57;32.37;;;19.10;;
12906;SDS011;6521;50.498;8.474;2022-12-07T07:34:28;35.50;;;19.20;;
12906;SDS011;6521;50.498;8.474;2022-12-07T07:36:58;34.50;;;19.47;;
12906;SDS011;6521;50.498;8.474;2022-12-07T07:39:29;37.77;;;20.47;;
12906;SDS011;6521;50.498;8.474;2022-12-07T07:42:00;41.23;;;20.40;;
12906;SDS011;6521;50.498;8.474;2022-12-07T07:44:31;36.40;;;22.10;;
12906;SDS011;6521;50.498;8.474;2022-12-07T07:47:03;36.87;;;21.53;;
12906;SDS011;6521;50.498;8.474;2022-12-07T07:49:33;41.47;;;22.27;;
12906;SDS011;6521;50.498;8.474;2022-12-07T07:52:05;37.67;;;20.10;;
12906;SDS011;6521;50.498;8.474;2022-12-07T07:54:36;37.23;;;20.50;;
12906;SDS011;6521;50.498;8.474;2022-12-07T07:57:07;37.03;;;21.47;;
12906;SDS011;6521;50.498;8.474;2022-12-07T07:59:38;39.83;;;20.60;;
12906;SDS011;6521;50.498;8.474;2022-12-07T08:02:15;38.50;;;19.43;;
12906;SDS011;6521;50.498;8.474;2022-12-07T08:04:47;41.50;;;20.07;;
12906;SDS011;6521;50.498;8.474;2022-12-07T08:07:18;43.93;;;21.03;;
12906;SDS011;6521;50.498;8.474;2022-12-07T08:09:49;40.13;;;19.63;;
12906;SDS011;6521;50.498;8.474;2022-12-07T08:12:20;40.67;;;20.60;;
12906;SDS011;6521;50.498;8.474;2022-12-07T08:14:51;37.73;;;19.63;;
12906;SDS011;6521;50.498;8.474;2022-12-07T08:17:22;41.37;;;19.87;;
12906;SDS011;6521;50.498;8.474;2022-12-07T08:19:52;34.07;;;19.60;;
12906;SDS011;6521;50.498;8.474;2022-12-07T08:22:23;41.10;;;19.90;;
12906;SDS011;6521;50.498;8.474;2022-12-07T08:24:54;33.67;;;20.47;;
12906;SDS011;6521;50.498;8.474;2022-12-07T08:27:25;36.60;;;18.27;;
12906;SDS011;6521;50.498;8.474;2022-12-07T08:29:57;35.47;;;19.03;;
12906;SDS011;6521;50.498;8.474;2022-12-07T08:32:28;32.20;;;18.73;;
12906;SDS011;6521;50.498;8.474;2022-12-07T08:34:58;36.23;;;17.97;;
12906;SDS011;6521;50.498;8.474;2022-12-07T08:37:29;30.60;;;17.63;;
12906;SDS011;6521;50.498;8.474;2022-12-07T08:40:02;34.73;;;17.30;;
12906;SDS011;6521;50.498;8.474;2022-12-07T08:42:33;31.00;;;17.37;;
12906;SDS011;6521;50.498;8.474;2022-12-07T08:45:11;29.30;;;16.57;;
12906;SDS011;6521;50.498;8.474;2022-12-07T08:48:00;23.60;;;14.67;;
12906;SDS011;6521;50.498;8.474;2022-12-07T08:50:37;24.93;;;15.23;;
12906;SDS011;6521;50.498;8.474;2022-12-07T08:53:08;27.70;;;13.93;;
12906;SDS011;6521;50.498;8.474;2022-12-07T08:55:39;26.77;;;14.27;;
12906;SDS011;6521;50.498;8.474;2022-12-07T08:58:10;26.20;;;15.07;;
12906;SDS011;6521;50.498;8.474;2022-12-07T09:00:41;26.77;;;15.37;;
12906;SDS011;6521;50.498;8.474;2022-12-07T09:03:12;25.07;;;14.67;;
12906;SDS011;6521;50.498;8.474;2022-12-07T09:05:42;24.30;;;15.17;;
12906;SDS011;6521;50.498;8.474;2022-12-07T09:08:13;26.97;;;15.70;;
12906;SDS011;6521;50.498;8.474;2022-12-07T09:10:44;24.53;;;15.00;;
12906;SDS011;6521;50.498;8.474;2022-12-07T09:13:15;28.23;;;15.27;;
12906;SDS011;6521;50.498;8.474;2022-12-07T09:15:46;25.23;;;14.47;;
12906;SDS011;6521;50.498;8.474;2022-12-07T09:18:17;27.53;;;15.40;;
12906;SDS011;6521;50.498;8.474;2022-12-07T09:20:48;23.33;;;14.77;;
12906;SDS011;6521;50.498;8.474;2022-12-07T09:23:19;25.20;;;15.60;;
12906;SDS011;6521;50.498;8.474;2022-12-07T09:25:50;22.47;;;14.50;;
12906;SDS011;6521;50.498;8.474;2022-12-07T09:28:22;21.60;;;14.47;;
12906;SDS011;6521;50.498;8.474;2022-12-07T09:30:52;24.83;;;14.47;;
12906;SDS011;6521;50.498;8.474;2022-12-07T09:33:26;24.00;;;13.97;;
12906;SDS011;6521;50.498;8.474;2022-12-07T09:35:57;17.37;;;11.63;;
12906;SDS011;6521;50.498;8.474;2022-12-07T09:38:28;16.87;;;12.30;;
12906;SDS011;6521;50.498;8.474;2022-12-07T09:41:03;17.27;;;11.60;;
12906;SDS011;6521;50.498;8.474;2022-12-07T09:43:37;15.10;;;11.13;;
12906;SDS011;6521;50.498;8.474;2022-12-07T09:46:14;18.93;;;11.73;;
12906;SDS011;6521;50.498;8.474;2022-12-07T09:48:48;16.40;;;11.23;;
12906;SDS011;6521;50.498;8.474;2022-12-07T09:51:21;19.60;;;10.13;;
12906;SDS011;6521;50.498;8.474;2022-12-07T09:53:54;24.90;;;9.80;;
12906;SDS011;6521;50.498;8.474;2022-12-07T09:56:28;22.50;;;11.17;;
12906;SDS011;6521;50.498;8.474;2022-12-07T09:59:01;21.57;;;12.07;;
12906;SDS011;6521;50.498;8.474;2022-12-07T10:01:33;16.27;;;9.57;;
12906;SDS011;6521;50.498;8.474;2022-12-07T10:04:18;11.80;;;9.27;;
12906;SDS011;6521;50.498;8.474;2022-12-07T10:06:52;12.83;;;9.33;;
12906;SDS011;6521;50.498;8.474;2022-12-07T10:09:23;16.63;;;10.03;;
12906;SDS011;6521;50.498;8.474;2022-12-07T10:14:52;13.67;;;8.93;;
12906;SDS011;6521;50.498;8.474;2022-12-07T10:17:35;31.63;;;11.83;;
12906;SDS011;6521;50.498;8.474;2022-12-07T10:20:17;13.23;;;9.27;;
12906;SDS011;6521;50.498;8.474;2022-12-07T10:23:04;17.97;;;9.23;;
12906;SDS011;6521;50.498;8.474;2022-12-07T10:25:44;11.93;;;9.70;;
12906;SDS011;6521;50.498;8.474;2022-12-07T10:28:16;19.90;;;9.77;;
12906;SDS011;6521;50.498;8.474;2022-12-07T10:33:38;18.00;;;11.13;;
12906;SDS011;6521;50.498;8.474;2022-12-07T10:36:35;19.33;;;11.03;;
12906;SDS011;6521;50.498;8.474;2022-12-07T10:42:00;11.73;;;8.33;;
12906;SDS011;6521;50.498;8.474;2022-12-07T10:44:34;13.57;;;7.93;;
12906;SDS011;6521;50.498;8.474;2022-12-07T11:07:20;15.13;;;7.53;;
12906;SDS011;6521;50.498;8.474;2022-12-07T11:13:12;9.53;;;5.23;;
12906;SDS011;6521;50.498;8.474;2022-12-07T11:16:01;12.03;;;6.87;;
12906;SDS011;6521;50.498;8.474;2022-12-07T11:24:22;6.97;;;4.63;;
12906;SDS011;6521;50.498;8.474;2022-12-07T11:30:08;8.33;;;5.53;;
12906;SDS011;6521;50.498;8.474;2022-12-07T11:32:45;11.33;;;6.17;;
12906;SDS011;6521;50.498;8.474;2022-12-07T11:38:20;15.73;;;5.67;;
12906;SDS011;6521;50.498;8.474;2022-12-07T11:40:56;9.40;;;6.13;;
12906;SDS011;6521;50.498;8.474;2022-12-07T11:43:50;12.37;;;5.60;;
12906;SDS011;6521;50.498;8.474;2022-12-07T11:46:26;8.80;;;5.23;;
12906;SDS011;6521;50.498;8.474;2022-12-07T11:49:09;12.23;;;6.57;;
12906;SDS011;6521;50.498;8.474;2022-12-07T11:51:52;8.60;;;4.80;;
12906;SDS011;6521;50.498;8.474;2022-12-07T11:54:30;9.27;;;4.57;;
12906;SDS011;6521;50.498;8.474;2022-12-07T11:57:07;5.17;;;3.57;;
12906;SDS011;6521;50.498;8.474;2022-12-07T11:59:59;8.10;;;4.37;;
12906;SDS011;6521;50.498;8.474;2022-12-07T12:02:41;6.87;;;4.20;;
12906;SDS011;6521;50.498;8.474;2022-12-07T12:05:22;6.50;;;3.47;;
12906;SDS011;6521;50.498;8.474;2022-12-07T12:08:13;7.87;;;4.33;;
12906;SDS011;6521;50.498;8.474;2022-12-07T12:13:49;8.87;;;3.80;;
12906;SDS011;6521;50.498;8.474;2022-12-07T12:19:32;9.80;;;4.43;;
12906;SDS011;6521;50.498;8.474;2022-12-07T12:22:18;17.27;;;8.20;;
12906;SDS011;6521;50.498;8.474;2022-12-07T12:24:51;7.83;;;4.77;;
12906;SDS011;6521;50.498;8.474;2022-12-07T12:27:27;8.07;;;5.17;;
12906;SDS011;6521;50.498;8.474;2022-12-07T12:30:06;9.43;;;4.17;;
12906;SDS011;6521;50.498;8.474;2022-12-07T12:33:02;5.00;;;4.13;;
12906;SDS011;6521;50.498;8.474;2022-12-07T12:35:36;9.13;;;4.53;;
12906;SDS011;6521;50.498;8.474;2022-12-07T12:41:00;9.87;;;5.10;;
12906;SDS011;6521;50.498;8.474;2022-12-07T12:44:08;6.03;;;4.23;;
12906;SDS011;6521;50.498;8.474;2022-12-07T12:54:58;8.27;;;4.60;;
12906;SDS011;6521;50.498;8.474;2022-12-07T12:57:43;7.40;;;3.60;;
12906;SDS011;6521;50.498;8.474;2022-12-07T13:00:21;6.67;;;3.50;;
12906;SDS011;6521;50.498;8.474;2022-12-07T13:02:54;7.37;;;4.30;;
12906;SDS011;6521;50.498;8.474;2022-12-07T13:05:27;7.73;;;4.13;;
12906;SDS011;6521;50.498;8.474;2022-12-07T13:08:05;8.67;;;3.80;;
12906;SDS011;6521;50.498;8.474;2022-12-07T13:10:45;11.57;;;4.77;;
12906;SDS011;6521;50.498;8.474;2022-12-07T13:15:53;7.70;;;3.90;;
12906;SDS011;6521;50.498;8.474;2022-12-07T13:18:37;7.27;;;3.63;;
12906;SDS011;6521;50.498;8.474;2022-12-07T13:31:46;6.07;;;4.17;;
12906;SDS011;6521;50.498;8.474;2022-12-07T13:34:39;8.90;;;4.33;;
12906;SDS011;6521;50.498;8.474;2022-12-07T13:37:14;9.40;;;4.07;;
12906;SDS011;6521;50.498;8.474;2022-12-07T13:39:53;11.10;;;4.47;;
12906;SDS011;6521;50.498;8.474;2022-12-07T13:42:32;9.10;;;4.30;;
12906;SDS011;6521;50.498;8.474;2022-12-07T13:45:21;12.57;;;4.87;;
12906;SDS011;6521;50.498;8.474;2022-12-07T13:48:30;11.20;;;4.40;;
12906;SDS011;6521;50.498;8.474;2022-12-07T13:51:03;5.57;;;4.07;;
12906;SDS011;6521;50.498;8.474;2022-12-07T13:53:34;8.80;;;4.50;;
12906;SDS011;6521;50.498;8.474;2022-12-07T13:56:17;8.17;;;4.00;;
12906;SDS011;6521;50.498;8.474;2022-12-07T13:58:48;7.60;;;3.30;;
12906;SDS011;6521;50.498;8.474;2022-12-07T14:01:19;6.20;;;3.93;;
12906;SDS011;6521;50.498;8.474;2022-12-07T14:03:50;5.97;;;3.40;;
12906;SDS011;6521;50.498;8.474;2022-12-07T14:06:23;5.27;;;4.17;;
12906;SDS011;6521;50.498;8.474;2022-12-07T14:09:08;10.43;;;6.63;;
12906;SDS011;6521;50.498;8.474;2022-12-07T14:11:48;15.37;;;6.23;;
12906;SDS011;6521;50.498;8.474;2022-12-07T14:14:29;7.30;;;4.47;;
12906;SDS011;6521;50.498;8.474;2022-12-07T14:17:11;11.43;;;4.70;;
12906;SDS011;6521;50.498;8.474;2022-12-07T14:22:21;10.07;;;5.13;;
12906;SDS011;6521;50.498;8.474;2022-12-07T14:25:43;14.07;;;6.43;;
12906;SDS011;6521;50.498;8.474;2022-12-07T14:27:58;8.80;;;5.73;;
12906;SDS011;6521;50.498;8.474;2022-12-07T14:30:31;6.70;;;4.23;;
12906;SDS011;6521;50.498;8.474;2022-12-07T14:33:04;9.20;;;4.47;;
12906;SDS011;6521;50.498;8.474;2022-12-07T14:35:37;5.57;;;3.50;;
12906;SDS011;6521;50.498;8.474;2022-12-07T14:38:10;14.67;;;3.93;;
12906;SDS011;6521;50.498;8.474;2022-12-07T14:40:41;8.03;;;3.33;;
12906;SDS011;6521;50.498;8.474;2022-12-07T14:43:12;12.47;;;4.70;;
12906;SDS011;6521;50.498;8.474;2022-12-07T14:45:46;11.10;;;5.10;;
12906;SDS011;6521;50.498;8.474;2022-12-07T14:48:17;33.37;;;6.80;;
12906;SDS011;6521;50.498;8.474;2022-12-07T14:50:51;12.87;;;4.93;;
12906;SDS011;6521;50.498;8.474;2022-12-07T14:53:25;12.07;;;4.00;;
12906;SDS011;6521;50.498;8.474;2022-12-07T14:56:04;8.13;;;3.57;;
12906;SDS011;6521;50.498;8.474;2022-12-07T14:58:38;5.23;;;2.93;;
12906;SDS011;6521;50.498;8.474;2022-12-07T15:01:10;7.27;;;2.23;;
12906;SDS011;6521;50.498;8.474;2022-12-07T15:03:41;8.17;;;3.13;;
12906;SDS011;6521;50.498;8.474;2022-12-07T15:06:16;9.33;;;2.93;;
12906;SDS011;6521;50.498;8.474;2022-12-07T15:08:48;7.50;;;3.00;;
12906;SDS011;6521;50.498;8.474;2022-12-07T15:11:19;5.97;;;1.97;;
12906;SDS011;6521;50.498;8.474;2022-12-07T15:13:50;4.10;;;2.10;;
12906;SDS011;6521;50.498;8.474;2022-12-07T15:16:41;4.57;;;1.90;;
12906;SDS011;6521;50.498;8.474;2022-12-07T15:19:22;4.83;;;3.60;;
12906;SDS011;6521;50.498;8.474;2022-12-07T15:21:56;3.50;;;2.50;;
12906;SDS011;6521;50.498;8.474;2022-12-07T15:24:28;7.63;;;4.17;;
12906;SDS011;6521;50.498;8.474;2022-12-07T15:26:59;6.40;;;3.30;;
12906;SDS011;6521;50.498;8.474;2022-12-07T15:29:31;5.93;;;3.10;;
12906;SDS011;6521;50.498;8.474;2022-12-07T15:32:01;6.03;;;3.90;;
12906;SDS011;6521;50.498;8.474;2022-12-07T15:34:32;4.47;;;2.30;;
12906;SDS011;6521;50.498;8.474;2022-12-07T15:37:03;5.30;;;2.33;;
12906;SDS011;6521;50.498;8.474;2022-12-07T15:39:34;3.97;;;1.60;;
12906;SDS011;6521;50.498;8.474;2022-12-07T15:42:06;6.40;;;2.70;;
12906;SDS011;6521;50.498;8.474;2022-12-07T15:44:37;4.03;;;2.10;;
12906;SDS011;6521;50.498;8.474;2022-12-07T15:47:26;3.00;;;2.07;;
12906;SDS011;6521;50.498;8.474;2022-12-07T15:49:57;4.53;;;3.00;;
12906;SDS011;6521;50.498;8.474;2022-12-07T15:52:28;6.53;;;3.07;;
12906;SDS011;6521;50.498;8.474;2022-12-07T15:54:58;7.80;;;4.20;;
12906;SDS011;6521;50.498;8.474;2022-12-07T15:57:36;5.10;;;3.77;;
12906;SDS011;6521;50.498;8.474;2022-12-07T16:00:08;7.17;;;4.23;;
12906;SDS011;6521;50.498;8.474;2022-12-07T16:02:40;6.40;;;4.53;;
12906;SDS011;6521;50.498;8.474;2022-12-07T16:05:11;10.17;;;6.70;;
12906;SDS011;6521;50.498;8.474;2022-12-07T16:07:42;10.60;;;7.60;;
12906;SDS011;6521;50.498;8.474;2022-12-07T16:10:12;7.90;;;4.77;;
12906;SDS011;6521;50.498;8.474;2022-12-07T16:12:43;7.43;;;4.30;;
12906;SDS011;6521;50.498;8.474;2022-12-07T16:15:14;18.57;;;11.00;;
12906;SDS011;6521;50.498;8.474;2022-12-07T16:17:45;31.97;;;18.97;;
12906;SDS011;6521;50.498;8.474;2022-12-07T16:20:16;16.60;;;12.47;;
12906;SDS011;6521;50.498;8.474;2022-12-07T16:22:46;5.87;;;5.13;;
12906;SDS011;6521;50.498;8.474;2022-12-07T16:25:17;5.90;;;4.27;;
12906;SDS011;6521;50.498;8.474;2022-12-07T16:27:48;9.13;;;5.60;;
12906;SDS011;6521;50.498;8.474;2022-12-07T16:30:19;5.87;;;4.50;;
12906;SDS011;6521;50.498;8.474;2022-12-07T16:32:51;8.70;;;5.00;;
12906;SDS011;6521;50.498;8.474;2022-12-07T16:35:22;7.73;;;4.57;;
12906;SDS011;6521;50.498;8.474;2022-12-07T16:37:52;8.93;;;4.67;;
12906;SDS011;6521;50.498;8.474;2022-12-07T16:40:23;5.37;;;4.43;;
12906;SDS011;6521;50.498;8.474;2022-12-07T16:42:54;10.97;;;5.60;;
12906;SDS011;6521;50.498;8.474;2022-12-07T16:45:24;7.97;;;5.53;;
12906;SDS011;6521;50.498;8.474;2022-12-07T16:47:55;12.53;;;8.43;;
12906;SDS011;6521;50.498;8.474;2022-12-07T16:50:26;14.70;;;7.27;;
12906;SDS011;6521;50.498;8.474;2022-12-07T16:52:56;10.00;;;6.50;;
12906;SDS011;6521;50.498;8.474;2022-12-07T16:55:27;7.97;;;6.13;;
12906;SDS011;6521;50.498;8.474;2022-12-07T16:57:58;12.20;;;9.00;;
12906;SDS011;6521;50.498;8.474;2022-12-07T17:00:28;9.53;;;5.60;;
12906;SDS011;6521;50.498;8.474;2022-12-07T17:02:59;9.97;;;6.23;;